TKJ4PZ LTAC-LQSA
Flight info
| Callsign | TKJ4PZ |
|---|---|
| Flight time | 1h 49m |
| Altitude | 38000 |
| Route | YAVRU UA4 ERKAL UL615 VADEN L615 DOLAP DCT VEBAR/N0335F200 Y88 KEB |
| Aircraft | B38M/M-SDE1FGHILORVWXY/HB1 |
Departure
| Time | 2026-05-03 20:43 |
|---|---|
| Airport | Esenboğa International Airport (LTAC) |
Arrival
| Time | 2026-05-03 22:32 |
|---|---|
| Airport | Sarajevo International Airport (LQSA) |
| Time | Latitude | Longitude | Altitude | Speed | Heading |
|---|---|---|---|---|---|
| 2026-05-03 20:25 | 40.11710 | 32.99498 | 3115 ft | 0 kts | 173° |
| 2026-05-03 20:32 | 40.11726 | 32.99494 | 3115 ft | 4 kts | 168° |
| 2026-05-03 20:33 | 40.11752 | 32.99484 | 3115 ft | 4 kts | 152° |
| 2026-05-03 20:33 | 40.11771 | 32.99463 | 3115 ft | 4 kts | 117° |
| 2026-05-03 20:33 | 40.11775 | 32.99441 | 3115 ft | 0 kts | 79° |
| 2026-05-03 20:37 | 40.11777 | 32.99458 | 3115 ft | 6 kts | 82° |
| 2026-05-03 20:37 | 40.11784 | 32.99545 | 3115 ft | 12 kts | 85° |
| 2026-05-03 20:37 | 40.11788 | 32.99662 | 3115 ft | 14 kts | 86° |
| 2026-05-03 20:37 | 40.11792 | 32.99784 | 3116 ft | 14 kts | 121° |
| 2026-05-03 20:38 | 40.11741 | 32.99874 | 3121 ft | 11 kts | 126° |
| 2026-05-03 20:38 | 40.11688 | 32.99970 | 3126 ft | 16 kts | 126° |
| 2026-05-03 20:38 | 40.11625 | 33.00084 | 3131 ft | 14 kts | 128° |
| 2026-05-03 20:38 | 40.11555 | 33.00112 | 3134 ft | 13 kts | 213° |
| 2026-05-03 20:39 | 40.11449 | 33.00013 | 3126 ft | 25 kts | 216° |
| 2026-05-03 20:39 | 40.11296 | 32.99866 | 3126 ft | 29 kts | 216° |
| 2026-05-03 20:39 | 40.11131 | 32.99708 | 3125 ft | 30 kts | 216° |
| 2026-05-03 20:39 | 40.10953 | 32.99540 | 3121 ft | 33 kts | 217° |
| 2026-05-03 20:40 | 40.10781 | 32.99373 | 3116 ft | 32 kts | 216° |
| 2026-05-03 20:40 | 40.10596 | 32.99197 | 3111 ft | 34 kts | 216° |
| 2026-05-03 20:40 | 40.10398 | 32.99009 | 3106 ft | 34 kts | 216° |
| 2026-05-03 20:40 | 40.10267 | 32.98884 | 3103 ft | 16 kts | 216° |
| 2026-05-03 20:41 | 40.10191 | 32.98814 | 3101 ft | 5 kts | 209° |
| 2026-05-03 20:41 | 40.10151 | 32.98812 | 3104 ft | 7 kts | 159° |
| 2026-05-03 20:41 | 40.10113 | 32.98866 | 3101 ft | 9 kts | 125° |
| 2026-05-03 20:41 | 40.10075 | 32.98935 | 3103 ft | 10 kts | 125° |
| 2026-05-03 20:42 | 40.10073 | 32.99005 | 3103 ft | 6 kts | 53° |
| 2026-05-03 20:42 | 40.10091 | 32.99026 | 3101 ft | 0 kts | 36° |
| 2026-05-03 20:42 | 40.10092 | 32.99027 | 3101 ft | 1 kts | 36° |
| 2026-05-03 20:43 | 40.10175 | 32.99106 | 3103 ft | 45 kts | 36° |
| 2026-05-03 20:43 | 40.10640 | 32.99550 | 3116 ft | 118 kts | 35° |
| 2026-05-03 20:43 | 40.11470 | 33.00334 | 3202 ft | 170 kts | 41° |
| 2026-05-03 20:43 | 40.12438 | 33.01356 | 3788 ft | 188 kts | 41° |
| 2026-05-03 20:44 | 40.13394 | 33.02366 | 5030 ft | 169 kts | 53° |
| 2026-05-03 20:44 | 40.13804 | 33.03286 | 5413 ft | 181 kts | 71° |
| 2026-05-03 20:44 | 40.14064 | 33.05594 | 6019 ft | 208 kts | 80° |
| 2026-05-03 20:44 | 40.14565 | 33.07473 | 6615 ft | 222 kts | 71° |
| 2026-05-03 20:45 | 40.15135 | 33.09347 | 7594 ft | 226 kts | 71° |
| 2026-05-03 20:45 | 40.15726 | 33.11307 | 8349 ft | 238 kts | 72° |
| 2026-05-03 20:45 | 40.16347 | 33.13366 | 9181 ft | 247 kts | 72° |
| 2026-05-03 20:45 | 40.17227 | 33.15395 | 9807 ft | 273 kts | 52° |
| 2026-05-03 20:46 | 40.18863 | 33.16822 | 10464 ft | 297 kts | 21° |
| 2026-05-03 20:46 | 40.20934 | 33.17199 | 11303 ft | 306 kts | 5° |
| 2026-05-03 20:46 | 40.23090 | 33.17396 | 11979 ft | 317 kts | 9° |
| 2026-05-03 20:46 | 40.25339 | 33.17631 | 12562 ft | 333 kts | 6° |
| 2026-05-03 20:47 | 40.27678 | 33.17312 | 12209 ft | 343 kts | 344° |
| 2026-05-03 20:47 | 40.29761 | 33.15840 | 11994 ft | 342 kts | 320° |
| 2026-05-03 20:47 | 40.30351 | 33.15120 | 11939 ft | 343 kts | 313° |
| 2026-05-03 20:47 | 40.32068 | 33.10550 | 11745 ft | 339 kts | 278° |
| 2026-05-03 20:48 | 40.32471 | 33.07490 | 11742 ft | 342 kts | 278° |
| 2026-05-03 20:48 | 40.32863 | 33.04417 | 11738 ft | 342 kts | 277° |
| 2026-05-03 20:48 | 40.33242 | 33.01344 | 11738 ft | 341 kts | 277° |
| 2026-05-03 20:48 | 40.33611 | 32.98264 | 11740 ft | 343 kts | 277° |
| 2026-05-03 20:49 | 40.33976 | 32.95185 | 11739 ft | 342 kts | 276° |
| 2026-05-03 20:49 | 40.34337 | 32.92110 | 11727 ft | 342 kts | 278° |
| 2026-05-03 20:49 | 40.35208 | 32.85952 | 11744 ft | 341 kts | 284° |
| 2026-05-03 20:50 | 40.35776 | 32.82934 | 11740 ft | 342 kts | 284° |
| 2026-05-03 20:50 | 40.36342 | 32.79897 | 12332 ft | 343 kts | 284° |
| 2026-05-03 20:50 | 40.36910 | 32.76852 | 13281 ft | 346 kts | 283° |
| 2026-05-03 20:50 | 40.37483 | 32.73770 | 14074 ft | 350 kts | 283° |
| 2026-05-03 20:51 | 40.38062 | 32.70651 | 14880 ft | 354 kts | 283° |
| 2026-05-03 20:51 | 40.38646 | 32.67502 | 15675 ft | 358 kts | 283° |
| 2026-05-03 20:51 | 40.39239 | 32.64317 | 16472 ft | 361 kts | 283° |
| 2026-05-03 20:51 | 40.39836 | 32.61098 | 17251 ft | 365 kts | 283° |
| 2026-05-03 20:52 | 40.40442 | 32.57828 | 17934 ft | 372 kts | 283° |
| 2026-05-03 20:52 | 40.41057 | 32.54508 | 18575 ft | 377 kts | 283° |
| 2026-05-03 20:52 | 40.41678 | 32.51149 | 19200 ft | 381 kts | 283° |
| 2026-05-03 20:52 | 40.42304 | 32.47753 | 19811 ft | 386 kts | 283° |
| 2026-05-03 20:53 | 40.42937 | 32.44315 | 20387 ft | 390 kts | 283° |
| 2026-05-03 20:53 | 40.43576 | 32.40835 | 20999 ft | 394 kts | 283° |
| 2026-05-03 20:53 | 40.44221 | 32.37319 | 21574 ft | 399 kts | 283° |
| 2026-05-03 20:53 | 40.44872 | 32.33761 | 22163 ft | 403 kts | 283° |
| 2026-05-03 20:54 | 40.45526 | 32.30180 | 22722 ft | 407 kts | 283° |
| 2026-05-03 20:54 | 40.46864 | 32.22840 | 23692 ft | 417 kts | 284° |
| 2026-05-03 20:54 | 40.47619 | 32.19168 | 24213 ft | 419 kts | 291° |
| 2026-05-03 20:55 | 40.48688 | 32.15591 | 24669 ft | 422 kts | 292° |
| 2026-05-03 20:55 | 40.49754 | 32.11989 | 25166 ft | 425 kts | 292° |
| 2026-05-03 20:55 | 40.50831 | 32.08350 | 25551 ft | 430 kts | 292° |
| 2026-05-03 20:55 | 40.51918 | 32.04676 | 26016 ft | 433 kts | 292° |
| 2026-05-03 20:56 | 40.53015 | 32.00968 | 26419 ft | 437 kts | 292° |
| 2026-05-03 20:56 | 40.54119 | 31.97226 | 26833 ft | 441 kts | 292° |
| 2026-05-03 20:56 | 40.55232 | 31.93447 | 27248 ft | 445 kts | 291° |
| 2026-05-03 20:56 | 40.56354 | 31.89636 | 27664 ft | 449 kts | 291° |
| 2026-05-03 20:57 | 40.57484 | 31.85792 | 28044 ft | 452 kts | 291° |
| 2026-05-03 20:57 | 40.58530 | 31.81873 | 28476 ft | 455 kts | 287° |
| 2026-05-03 20:57 | 40.59495 | 31.77892 | 28844 ft | 459 kts | 287° |
| 2026-05-03 20:57 | 40.60484 | 31.73875 | 29202 ft | 463 kts | 287° |
| 2026-05-03 20:58 | 40.61483 | 31.69839 | 29599 ft | 465 kts | 287° |
| 2026-05-03 20:58 | 40.62491 | 31.65775 | 29965 ft | 468 kts | 287° |
| 2026-05-03 20:58 | 40.63502 | 31.61689 | 30297 ft | 471 kts | 287° |
| 2026-05-03 20:58 | 40.64518 | 31.57582 | 30651 ft | 472 kts | 287° |
| 2026-05-03 20:59 | 40.65190 | 31.54858 | 30876 ft | 473 kts | 287° |
| 2026-05-03 20:59 | 40.66206 | 31.50734 | 31213 ft | 475 kts | 287° |
| 2026-05-03 20:59 | 40.67230 | 31.46574 | 31559 ft | 477 kts | 286° |
| 2026-05-03 20:59 | 40.68253 | 31.42408 | 31888 ft | 479 kts | 286° |
| 2026-05-03 21:00 | 40.69277 | 31.38233 | 32302 ft | 478 kts | 286° |
| 2026-05-03 21:00 | 40.69954 | 31.35468 | 32561 ft | 479 kts | 286° |
| 2026-05-03 21:00 | 40.71323 | 31.29866 | 32943 ft | 482 kts | 285° |
| 2026-05-03 21:00 | 40.72351 | 31.25652 | 33258 ft | 484 kts | 285° |
| 2026-05-03 21:01 | 40.73381 | 31.21420 | 33571 ft | 485 kts | 285° |
| 2026-05-03 21:01 | 40.74412 | 31.17179 | 33894 ft | 487 kts | 285° |
| 2026-05-03 21:01 | 40.75446 | 31.12918 | 34160 ft | 488 kts | 285° |
| 2026-05-03 21:01 | 40.76478 | 31.08659 | 34514 ft | 486 kts | 285° |
| 2026-05-03 21:02 | 40.77502 | 31.04425 | 34969 ft | 483 kts | 285° |
| 2026-05-03 21:02 | 40.78517 | 31.00216 | 35384 ft | 480 kts | 285° |
| 2026-05-03 21:02 | 40.79524 | 30.96033 | 35771 ft | 478 kts | 285° |
| 2026-05-03 21:02 | 40.80527 | 30.91860 | 36128 ft | 476 kts | 285° |
| 2026-05-03 21:03 | 40.81525 | 30.87699 | 36488 ft | 475 kts | 285° |
| 2026-05-03 21:03 | 40.82521 | 30.83545 | 36802 ft | 474 kts | 285° |
| 2026-05-03 21:03 | 40.83512 | 30.79398 | 37107 ft | 473 kts | 285° |
| 2026-05-03 21:03 | 40.84488 | 30.75310 | 37391 ft | 473 kts | 285° |
| 2026-05-03 21:04 | 40.85477 | 30.71164 | 37668 ft | 473 kts | 285° |
| 2026-05-03 21:04 | 40.86439 | 30.67016 | 37912 ft | 472 kts | 282° |
| 2026-05-03 21:04 | 40.87913 | 30.58631 | 37944 ft | 469 kts | 282° |
| 2026-05-03 21:05 | 40.89431 | 30.50258 | 37955 ft | 469 kts | 282° |
| 2026-05-03 21:05 | 40.90951 | 30.41908 | 37937 ft | 465 kts | 282° |
| 2026-05-03 21:06 | 40.92448 | 30.33582 | 37956 ft | 466 kts | 281° |
| 2026-05-03 21:06 | 40.93917 | 30.25224 | 37964 ft | 467 kts | 281° |
| 2026-05-03 21:07 | 40.95382 | 30.16875 | 37959 ft | 465 kts | 281° |
| 2026-05-03 21:07 | 40.96838 | 30.08533 | 37961 ft | 466 kts | 281° |
| 2026-05-03 21:08 | 40.98292 | 30.00163 | 37954 ft | 466 kts | 282° |
| 2026-05-03 21:08 | 40.99715 | 29.91821 | 37958 ft | 465 kts | 281° |
| 2026-05-03 21:09 | 41.01137 | 29.83451 | 37965 ft | 467 kts | 282° |
| 2026-05-03 21:09 | 41.02552 | 29.75090 | 37972 ft | 464 kts | 282° |
| 2026-05-03 21:10 | 41.03956 | 29.66743 | 37970 ft | 464 kts | 281° |
| 2026-05-03 21:10 | 41.05359 | 29.58418 | 37967 ft | 466 kts | 281° |
| 2026-05-03 21:11 | 41.06764 | 29.50058 | 37963 ft | 465 kts | 281° |
| 2026-05-03 21:11 | 41.08167 | 29.41662 | 37955 ft | 468 kts | 281° |
| 2026-05-03 21:12 | 41.09570 | 29.33233 | 37958 ft | 467 kts | 282° |
| 2026-05-03 21:12 | 41.10957 | 29.24855 | 37969 ft | 466 kts | 282° |
| 2026-05-03 21:13 | 41.12386 | 29.16440 | 37963 ft | 469 kts | 287° |
| 2026-05-03 21:13 | 41.13716 | 29.12524 | 37944 ft | 465 kts | 303° |
| 2026-05-03 21:13 | 41.15488 | 29.08930 | 37990 ft | 467 kts | 302° |
| 2026-05-03 21:14 | 41.19022 | 29.01707 | 38010 ft | 465 kts | 303° |
| 2026-05-03 21:14 | 41.22594 | 28.94533 | 37975 ft | 468 kts | 303° |
| 2026-05-03 21:15 | 41.26196 | 28.87307 | 38000 ft | 467 kts | 303° |
| 2026-05-03 21:15 | 41.29786 | 28.80093 | 37988 ft | 470 kts | 303° |
| 2026-05-03 21:16 | 41.33402 | 28.72808 | 38007 ft | 471 kts | 303° |
| 2026-05-03 21:16 | 41.36987 | 28.65566 | 37996 ft | 466 kts | 303° |
| 2026-05-03 21:17 | 41.39960 | 28.59551 | 38018 ft | 469 kts | 303° |
| 2026-05-03 21:17 | 41.44123 | 28.51103 | 38011 ft | 466 kts | 303° |
| 2026-05-03 21:18 | 41.47673 | 28.43887 | 38004 ft | 464 kts | 303° |
| 2026-05-03 21:18 | 41.51211 | 28.36673 | 38037 ft | 464 kts | 303° |
| 2026-05-03 21:19 | 41.54739 | 28.29469 | 38052 ft | 464 kts | 303° |
| 2026-05-03 21:19 | 41.58279 | 28.22221 | 38037 ft | 467 kts | 304° |
| 2026-05-03 21:20 | 41.61812 | 28.14969 | 38025 ft | 463 kts | 304° |
| 2026-05-03 21:20 | 41.65331 | 28.07732 | 38050 ft | 466 kts | 303° |
| 2026-05-03 21:21 | 41.68836 | 28.00502 | 38049 ft | 461 kts | 303° |
| 2026-05-03 21:21 | 41.72308 | 27.93329 | 38053 ft | 464 kts | 304° |
| 2026-05-03 21:22 | 41.75819 | 27.86053 | 38061 ft | 465 kts | 303° |
| 2026-05-03 21:22 | 41.79318 | 27.78786 | 38059 ft | 466 kts | 303° |
| 2026-05-03 21:23 | 41.82829 | 27.71475 | 38048 ft | 465 kts | 304° |
| 2026-05-03 21:23 | 41.86328 | 27.64173 | 38070 ft | 464 kts | 304° |
| 2026-05-03 21:24 | 41.89822 | 27.56866 | 38092 ft | 466 kts | 303° |
| 2026-05-03 21:24 | 41.93304 | 27.49562 | 38077 ft | 463 kts | 303° |
| 2026-05-03 21:25 | 41.96769 | 27.42281 | 38075 ft | 463 kts | 303° |
| 2026-05-03 21:25 | 42.00235 | 27.34975 | 38089 ft | 463 kts | 303° |
| 2026-05-03 21:26 | 42.03697 | 27.27666 | 38088 ft | 465 kts | 303° |
| 2026-05-03 21:26 | 42.07025 | 27.20185 | 38086 ft | 465 kts | 294° |
| 2026-05-03 21:27 | 42.09536 | 27.12207 | 38081 ft | 462 kts | 294° |
| 2026-05-03 21:27 | 42.12041 | 27.04301 | 38106 ft | 462 kts | 294° |
| 2026-05-03 21:28 | 42.14555 | 26.96331 | 38110 ft | 462 kts | 294° |
| 2026-05-03 21:28 | 42.17065 | 26.88349 | 38108 ft | 463 kts | 294° |
| 2026-05-03 21:29 | 42.19576 | 26.80339 | 38116 ft | 464 kts | 294° |
| 2026-05-03 21:29 | 42.22081 | 26.72326 | 38121 ft | 464 kts | 294° |
| 2026-05-03 21:30 | 42.24579 | 26.64308 | 38123 ft | 464 kts | 294° |
| 2026-05-03 21:30 | 42.27070 | 26.56290 | 38126 ft | 463 kts | 294° |
| 2026-05-03 21:31 | 42.29551 | 26.48281 | 38129 ft | 462 kts | 294° |
| 2026-05-03 21:31 | 42.32027 | 26.40263 | 38130 ft | 462 kts | 294° |
| 2026-05-03 21:32 | 42.34494 | 26.32248 | 38122 ft | 462 kts | 294° |
| 2026-05-03 21:32 | 42.36952 | 26.24241 | 38133 ft | 460 kts | 294° |
| 2026-05-03 21:33 | 42.39401 | 26.16237 | 38136 ft | 461 kts | 294° |
| 2026-05-03 21:33 | 42.41845 | 26.08225 | 38140 ft | 460 kts | 294° |
| 2026-05-03 21:34 | 42.44283 | 26.00211 | 38147 ft | 460 kts | 294° |
| 2026-05-03 21:34 | 42.46710 | 25.92205 | 38150 ft | 460 kts | 294° |
| 2026-05-03 21:35 | 42.49132 | 25.84190 | 38166 ft | 460 kts | 294° |
| 2026-05-03 21:35 | 42.51532 | 25.76224 | 38179 ft | 460 kts | 294° |
| 2026-05-03 21:36 | 42.53942 | 25.68202 | 38179 ft | 459 kts | 294° |
| 2026-05-03 21:36 | 42.56343 | 25.60184 | 38190 ft | 459 kts | 294° |
| 2026-05-03 21:37 | 42.58739 | 25.52161 | 38225 ft | 459 kts | 294° |
| 2026-05-03 21:37 | 42.61130 | 25.44127 | 38222 ft | 459 kts | 294° |
| 2026-05-03 21:38 | 42.63514 | 25.36092 | 38219 ft | 458 kts | 294° |
| 2026-05-03 21:38 | 42.65884 | 25.28078 | 38247 ft | 457 kts | 294° |
| 2026-05-03 21:39 | 42.68252 | 25.20048 | 38241 ft | 458 kts | 294° |
| 2026-05-03 21:39 | 42.70613 | 25.12015 | 38258 ft | 458 kts | 294° |
| 2026-05-03 21:40 | 42.72967 | 25.03979 | 38276 ft | 457 kts | 294° |
| 2026-05-03 21:40 | 42.75318 | 24.95931 | 38283 ft | 458 kts | 294° |
| 2026-05-03 21:41 | 42.77661 | 24.87882 | 38296 ft | 457 kts | 294° |
| 2026-05-03 21:41 | 42.80000 | 24.79825 | 38283 ft | 457 kts | 294° |
| 2026-05-03 21:42 | 42.82323 | 24.71795 | 38309 ft | 455 kts | 294° |
| 2026-05-03 21:42 | 42.84637 | 24.63772 | 38323 ft | 455 kts | 294° |
| 2026-05-03 21:43 | 42.86952 | 24.55720 | 38330 ft | 458 kts | 294° |
| 2026-05-03 21:43 | 42.89267 | 24.47643 | 38317 ft | 457 kts | 294° |
| 2026-05-03 21:44 | 42.91569 | 24.39583 | 38321 ft | 456 kts | 294° |
| 2026-05-03 21:44 | 42.93864 | 24.31522 | 38315 ft | 456 kts | 294° |
| 2026-05-03 21:45 | 42.96153 | 24.23459 | 38327 ft | 456 kts | 294° |
| 2026-05-03 21:45 | 42.98437 | 24.15388 | 38309 ft | 455 kts | 294° |
| 2026-05-03 21:46 | 43.00709 | 24.07329 | 38304 ft | 454 kts | 294° |
| 2026-05-03 21:46 | 43.02594 | 24.00625 | 38311 ft | 455 kts | 294° |
| 2026-05-03 21:47 | 43.04855 | 23.92560 | 38311 ft | 454 kts | 294° |
| 2026-05-03 21:47 | 43.07110 | 23.84492 | 38319 ft | 453 kts | 294° |
| 2026-05-03 21:48 | 43.09349 | 23.76453 | 38315 ft | 451 kts | 294° |
| 2026-05-03 21:48 | 43.11940 | 23.67121 | 38306 ft | 452 kts | 294° |
| 2026-05-03 21:49 | 43.13806 | 23.60382 | 38318 ft | 452 kts | 294° |
| 2026-05-03 21:49 | 43.16024 | 23.52350 | 38312 ft | 449 kts | 295° |
| 2026-05-03 21:50 | 43.18223 | 23.44362 | 38286 ft | 448 kts | 295° |
| 2026-05-03 21:50 | 43.20418 | 23.36365 | 38285 ft | 448 kts | 295° |
| 2026-05-03 21:51 | 43.22676 | 23.28421 | 38300 ft | 447 kts | 296° |
| 2026-05-03 21:51 | 43.24950 | 23.20537 | 38289 ft | 448 kts | 296° |
| 2026-05-03 21:52 | 43.27242 | 23.12557 | 38284 ft | 450 kts | 296° |
| 2026-05-03 21:52 | 43.29529 | 23.04570 | 38291 ft | 450 kts | 296° |
| 2026-05-03 21:53 | 43.31810 | 22.96579 | 38285 ft | 449 kts | 296° |
| 2026-05-03 21:53 | 43.34085 | 22.88584 | 38284 ft | 450 kts | 296° |
| 2026-05-03 21:54 | 43.36360 | 22.80565 | 38285 ft | 450 kts | 296° |
| 2026-05-03 21:54 | 43.38360 | 22.72374 | 38284 ft | 454 kts | 292° |
| 2026-05-03 21:55 | 43.40244 | 22.64094 | 38281 ft | 453 kts | 292° |
| 2026-05-03 21:55 | 43.42130 | 22.55869 | 38260 ft | 448 kts | 292° |
| 2026-05-03 21:56 | 43.44000 | 22.47693 | 38257 ft | 448 kts | 292° |
| 2026-05-03 21:56 | 43.45864 | 22.39510 | 38225 ft | 448 kts | 292° |
| 2026-05-03 21:57 | 43.47723 | 22.31324 | 38227 ft | 448 kts | 292° |
| 2026-05-03 21:57 | 43.49566 | 22.23171 | 38222 ft | 443 kts | 292° |
| 2026-05-03 21:58 | 43.51385 | 22.15097 | 38209 ft | 440 kts | 292° |
| 2026-05-03 21:58 | 43.53197 | 22.07025 | 38211 ft | 441 kts | 291° |
| 2026-05-03 21:59 | 43.55004 | 21.98945 | 38207 ft | 441 kts | 291° |
| 2026-05-03 21:59 | 43.56803 | 21.90872 | 38209 ft | 441 kts | 291° |
| 2026-05-03 22:00 | 43.58599 | 21.82782 | 38193 ft | 441 kts | 291° |
| 2026-05-03 22:00 | 43.60390 | 21.74683 | 38192 ft | 442 kts | 291° |
| 2026-05-03 22:01 | 43.62175 | 21.66579 | 38185 ft | 441 kts | 291° |
| 2026-05-03 22:01 | 43.63952 | 21.58484 | 38177 ft | 440 kts | 291° |
| 2026-05-03 22:02 | 43.65718 | 21.50406 | 38185 ft | 439 kts | 291° |
| 2026-05-03 22:02 | 43.67465 | 21.42382 | 38182 ft | 439 kts | 291° |
| 2026-05-03 22:03 | 43.69218 | 21.34303 | 38185 ft | 439 kts | 291° |
| 2026-05-03 22:03 | 43.70966 | 21.26213 | 38174 ft | 439 kts | 291° |
| 2026-05-03 22:04 | 43.72707 | 21.18125 | 38186 ft | 439 kts | 291° |
| 2026-05-03 22:04 | 43.74441 | 21.10041 | 38199 ft | 439 kts | 291° |
| 2026-05-03 22:05 | 43.76169 | 21.01952 | 38190 ft | 439 kts | 291° |
| 2026-05-03 22:05 | 43.77894 | 20.93849 | 38163 ft | 438 kts | 291° |
| 2026-05-03 22:06 | 43.78741 | 20.89853 | 37916 ft | 430 kts | 291° |
| 2026-05-03 22:06 | 43.79582 | 20.85884 | 37298 ft | 429 kts | 291° |
| 2026-05-03 22:06 | 43.80418 | 20.81932 | 36715 ft | 427 kts | 291° |
| 2026-05-03 22:06 | 43.81247 | 20.78003 | 36231 ft | 423 kts | 291° |
| 2026-05-03 22:07 | 43.82069 | 20.74100 | 35768 ft | 420 kts | 291° |
| 2026-05-03 22:07 | 43.82881 | 20.70233 | 35281 ft | 418 kts | 292° |
| 2026-05-03 22:07 | 43.83690 | 20.66377 | 34769 ft | 416 kts | 292° |
| 2026-05-03 22:07 | 43.84494 | 20.62539 | 34291 ft | 414 kts | 292° |
| 2026-05-03 22:08 | 43.85293 | 20.58716 | 33738 ft | 412 kts | 292° |
| 2026-05-03 22:08 | 43.86086 | 20.54915 | 33237 ft | 409 kts | 292° |
| 2026-05-03 22:08 | 43.86869 | 20.51152 | 32784 ft | 405 kts | 292° |
| 2026-05-03 22:08 | 43.87646 | 20.47415 | 32334 ft | 401 kts | 292° |
| 2026-05-03 22:09 | 43.88414 | 20.43714 | 31879 ft | 398 kts | 292° |
| 2026-05-03 22:09 | 43.89174 | 20.40041 | 31426 ft | 395 kts | 292° |
| 2026-05-03 22:09 | 43.89930 | 20.36385 | 30983 ft | 393 kts | 292° |
| 2026-05-03 22:10 | 43.91421 | 20.29155 | 30083 ft | 388 kts | 292° |
| 2026-05-03 22:10 | 43.92158 | 20.25568 | 29568 ft | 385 kts | 292° |
| 2026-05-03 22:10 | 43.92885 | 20.22027 | 29172 ft | 380 kts | 292° |
| 2026-05-03 22:10 | 43.93604 | 20.18519 | 28774 ft | 376 kts | 292° |
| 2026-05-03 22:11 | 43.94315 | 20.15042 | 28356 ft | 373 kts | 292° |
| 2026-05-03 22:11 | 43.95019 | 20.11593 | 27967 ft | 369 kts | 292° |
| 2026-05-03 22:11 | 43.95716 | 20.08176 | 27579 ft | 366 kts | 292° |
| 2026-05-03 22:11 | 43.96406 | 20.04783 | 27183 ft | 364 kts | 292° |
| 2026-05-03 22:12 | 43.97090 | 20.01416 | 26806 ft | 362 kts | 292° |
| 2026-05-03 22:12 | 43.97770 | 19.98065 | 26425 ft | 359 kts | 292° |
| 2026-05-03 22:12 | 43.98436 | 19.94778 | 26062 ft | 358 kts | 292° |
| 2026-05-03 22:12 | 43.99114 | 19.91422 | 25657 ft | 356 kts | 292° |
| 2026-05-03 22:13 | 43.99780 | 19.88125 | 25306 ft | 354 kts | 291° |
| 2026-05-03 22:13 | 44.00442 | 19.84838 | 24931 ft | 353 kts | 291° |
| 2026-05-03 22:13 | 44.01092 | 19.81606 | 24565 ft | 352 kts | 291° |
| 2026-05-03 22:13 | 44.01747 | 19.78342 | 24205 ft | 351 kts | 291° |
| 2026-05-03 22:14 | 44.02400 | 19.75084 | 23835 ft | 349 kts | 291° |
| 2026-05-03 22:14 | 44.03050 | 19.71839 | 23419 ft | 347 kts | 291° |
| 2026-05-03 22:14 | 44.03695 | 19.68615 | 23034 ft | 345 kts | 291° |
| 2026-05-03 22:14 | 44.04334 | 19.65412 | 22646 ft | 342 kts | 291° |
| 2026-05-03 22:15 | 44.04966 | 19.62240 | 22315 ft | 339 kts | 291° |
| 2026-05-03 22:15 | 44.05590 | 19.59100 | 21934 ft | 336 kts | 291° |
| 2026-05-03 22:15 | 44.06211 | 19.55971 | 21591 ft | 334 kts | 291° |
| 2026-05-03 22:15 | 44.06825 | 19.52879 | 21272 ft | 331 kts | 291° |
| 2026-05-03 22:16 | 44.07437 | 19.49791 | 20915 ft | 330 kts | 291° |
| 2026-05-03 22:16 | 44.08045 | 19.46721 | 20570 ft | 328 kts | 291° |
| 2026-05-03 22:16 | 44.08648 | 19.43670 | 20238 ft | 326 kts | 291° |
| 2026-05-03 22:16 | 44.09247 | 19.40633 | 19896 ft | 325 kts | 291° |
| 2026-05-03 22:17 | 44.09844 | 19.37604 | 19551 ft | 324 kts | 291° |
| 2026-05-03 22:17 | 44.10437 | 19.34591 | 19219 ft | 323 kts | 291° |
| 2026-05-03 22:17 | 44.11028 | 19.31584 | 18880 ft | 322 kts | 291° |
| 2026-05-03 22:17 | 44.11616 | 19.28581 | 18548 ft | 320 kts | 291° |
| 2026-05-03 22:18 | 44.12202 | 19.25592 | 18177 ft | 320 kts | 290° |
| 2026-05-03 22:18 | 44.12785 | 19.22611 | 17803 ft | 318 kts | 290° |
| 2026-05-03 22:18 | 44.13302 | 19.19621 | 17419 ft | 320 kts | 281° |
| 2026-05-03 22:18 | 44.13117 | 19.16510 | 17072 ft | 327 kts | 257° |
| 2026-05-03 22:19 | 44.12368 | 19.13534 | 16771 ft | 324 kts | 253° |
| 2026-05-03 22:19 | 44.11594 | 19.10590 | 16434 ft | 323 kts | 253° |
| 2026-05-03 22:19 | 44.10809 | 19.07663 | 16098 ft | 323 kts | 252° |
| 2026-05-03 22:19 | 44.10028 | 19.04782 | 15763 ft | 322 kts | 252° |
| 2026-05-03 22:20 | 44.09219 | 19.01830 | 15424 ft | 322 kts | 252° |
| 2026-05-03 22:20 | 44.08421 | 18.98928 | 15082 ft | 321 kts | 252° |
| 2026-05-03 22:20 | 44.07633 | 18.96068 | 14733 ft | 320 kts | 252° |
| 2026-05-03 22:20 | 44.06837 | 18.93185 | 14420 ft | 319 kts | 252° |
| 2026-05-03 22:21 | 44.06042 | 18.90309 | 14081 ft | 318 kts | 252° |
| 2026-05-03 22:21 | 44.05248 | 18.87442 | 13707 ft | 318 kts | 251° |
| 2026-05-03 22:21 | 44.04454 | 18.84578 | 13343 ft | 317 kts | 251° |
| 2026-05-03 22:21 | 44.03664 | 18.81731 | 13000 ft | 315 kts | 251° |
| 2026-05-03 22:22 | 44.02879 | 18.78906 | 12651 ft | 312 kts | 251° |
| 2026-05-03 22:22 | 44.02099 | 18.76099 | 12323 ft | 310 kts | 251° |
| 2026-05-03 22:22 | 44.01323 | 18.73312 | 12006 ft | 308 kts | 251° |
| 2026-05-03 22:22 | 44.00553 | 18.70549 | 11682 ft | 306 kts | 251° |
| 2026-05-03 22:23 | 43.99785 | 18.67794 | 11355 ft | 305 kts | 251° |
| 2026-05-03 22:23 | 43.99019 | 18.65053 | 11036 ft | 304 kts | 250° |
| 2026-05-03 22:23 | 43.98256 | 18.62325 | 10710 ft | 303 kts | 250° |
| 2026-05-03 22:23 | 43.97492 | 18.59598 | 10383 ft | 302 kts | 250° |
| 2026-05-03 22:24 | 43.96731 | 18.56884 | 10067 ft | 301 kts | 250° |
| 2026-05-03 22:24 | 43.95978 | 18.54197 | 9656 ft | 295 kts | 250° |
| 2026-05-03 22:24 | 43.95242 | 18.51574 | 9227 ft | 289 kts | 250° |
| 2026-05-03 22:24 | 43.94520 | 18.49010 | 8871 ft | 281 kts | 250° |
| 2026-05-03 22:25 | 43.93822 | 18.46526 | 8585 ft | 272 kts | 250° |
| 2026-05-03 22:25 | 43.93366 | 18.44049 | 8240 ft | 261 kts | 269° |
| 2026-05-03 22:25 | 43.93337 | 18.41584 | 7946 ft | 251 kts | 271° |
| 2026-05-03 22:25 | 43.93303 | 18.39205 | 7702 ft | 242 kts | 271° |
| 2026-05-03 22:26 | 43.93270 | 18.36912 | 7447 ft | 233 kts | 271° |
| 2026-05-03 22:26 | 43.93237 | 18.34710 | 7205 ft | 224 kts | 271° |
| 2026-05-03 22:26 | 43.93205 | 18.32616 | 6978 ft | 216 kts | 271° |
| 2026-05-03 22:26 | 43.93173 | 18.30562 | 6759 ft | 211 kts | 271° |
| 2026-05-03 22:27 | 43.93142 | 18.28538 | 6652 ft | 209 kts | 271° |
| 2026-05-03 22:27 | 43.93110 | 18.26522 | 6560 ft | 210 kts | 271° |
| 2026-05-03 22:27 | 43.93077 | 18.24500 | 6140 ft | 213 kts | 270° |
| 2026-05-03 22:27 | 43.93043 | 18.22409 | 5714 ft | 218 kts | 270° |
| 2026-05-03 22:28 | 43.93010 | 18.20324 | 5461 ft | 213 kts | 270° |
| 2026-05-03 22:28 | 43.92829 | 18.18319 | 5199 ft | 209 kts | 249° |
| 2026-05-03 22:28 | 43.91992 | 18.16719 | 4897 ft | 207 kts | 218° |
| 2026-05-03 22:28 | 43.90682 | 18.15972 | 4524 ft | 205 kts | 185° |
| 2026-05-03 22:29 | 43.89367 | 18.16315 | 4257 ft | 184 kts | 150° |
| 2026-05-03 22:29 | 43.88513 | 18.17506 | 4070 ft | 167 kts | 122° |
| 2026-05-03 22:29 | 43.87939 | 18.18831 | 3851 ft | 156 kts | 120° |
| 2026-05-03 22:29 | 43.87409 | 18.20119 | 3706 ft | 152 kts | 119° |
| 2026-05-03 22:30 | 43.86896 | 18.21402 | 3511 ft | 152 kts | 118° |
| 2026-05-03 22:30 | 43.86396 | 18.22682 | 3297 ft | 150 kts | 118° |
| 2026-05-03 22:30 | 43.85909 | 18.23950 | 3080 ft | 149 kts | 117° |
| 2026-05-03 22:30 | 43.85425 | 18.25222 | 2865 ft | 149 kts | 117° |
| 2026-05-03 22:31 | 43.84947 | 18.26489 | 2644 ft | 148 kts | 117° |
| 2026-05-03 22:31 | 43.84471 | 18.27755 | 2422 ft | 148 kts | 117° |
| 2026-05-03 22:31 | 43.83999 | 18.29015 | 2203 ft | 147 kts | 117° |
| 2026-05-03 22:31 | 43.83534 | 18.30274 | 1949 ft | 146 kts | 117° |
| 2026-05-03 22:32 | 43.83080 | 18.31485 | 1744 ft | 145 kts | 118° |
| 2026-05-03 22:32 | 43.82637 | 18.32672 | 1681 ft | 122 kts | 117° |
| 2026-05-03 22:32 | 43.82314 | 18.33524 | 1696 ft | 78 kts | 117° |
| 2026-05-03 22:32 | 43.82164 | 18.33924 | 1705 ft | 31 kts | 117° |
| 2026-05-03 22:33 | 43.82068 | 18.34186 | 1709 ft | 30 kts | 117° |
| 2026-05-03 22:33 | 43.82024 | 18.34350 | 1713 ft | 14 kts | 88° |
| 2026-05-03 22:33 | 43.82006 | 18.34393 | 1714 ft | 3 kts | 194° |
| 2026-05-03 22:33 | 43.82011 | 18.34339 | 1712 ft | 15 kts | 298° |
| 2026-05-03 22:34 | 43.82098 | 18.34111 | 1709 ft | 33 kts | 297° |
| 2026-05-03 22:34 | 43.82185 | 18.33883 | 1704 ft | 22 kts | 297° |
| 2026-05-03 22:34 | 43.82241 | 18.33739 | 1704 ft | 12 kts | 309° |
| 2026-05-03 22:34 | 43.82335 | 18.33673 | 1695 ft | 14 kts | 342° |
| 2026-05-03 22:35 | 43.82388 | 18.33654 | 1693 ft | 7 kts | 345° |
| 2026-05-03 22:35 | 43.82449 | 18.33630 | 1692 ft | 10 kts | 335° |
| 2026-05-03 22:35 | 43.82474 | 18.33584 | 1693 ft | 9 kts | 298° |
| 2026-05-03 22:35 | 43.82501 | 18.33507 | 1692 ft | 7 kts | 294° |
| 2026-05-03 22:36 | 43.82534 | 18.33484 | 1691 ft | 4 kts | 29° |
| 2026-05-03 22:36 | 43.82570 | 18.33510 | 1688 ft | 2 kts | 26° |
| 2026-05-03 22:36 | 43.82576 | 18.33514 | 1690 ft | 0 kts | 26° |